Harvey, Mississippi
Current Conditions -  °F | °C
As of 9:53 PM on Friday 19 Dec 2014 (Local Time) from KHBG Reporting Station
Light Rain Light Rain  
Wind Chill: 44°   Ceiling: 800
Heat Index: 47°   Visibility: 7mi
Dew Point: 45°   Wind: 7mph
Humidity: 93%   Direction: 90°E
Pressure: 30.14"   Gusts: NA
Location:  31.3432°N, 89.178°W
Report Text: KHBG 200353Z AUTO 09006KT 7SM -RA OVC008 08/07 A3014 RMK AO2 CIG 005V011 SLP207 P0002 T00830072
Loading
Personal Weather Stations






























Interactive Weather Map New forecast layout! Learn more

10-Day Weather Forecast

Advertisements
Track Severe Weather on mobile